createdAt,value
2018-11-25T00:01:25.719Z,94883.00
2018-11-25T00:03:56.677Z,94882.00
2018-11-25T00:06:27.586Z,94880.00
2018-11-25T00:08:58.685Z,94880.00
2018-11-25T00:11:29.654Z,94886.00
2018-11-25T00:14:00.681Z,94876.00
2018-11-25T00:16:32.796Z,94879.00
2018-11-25T00:19:03.856Z,94879.00
2018-11-25T00:21:36.738Z,94879.00
2018-11-25T00:24:07.962Z,94880.00
2018-11-25T00:26:38.949Z,94877.00
2018-11-25T00:29:09.942Z,94870.00
2018-11-25T00:31:40.921Z,94871.00
2018-11-25T00:34:11.956Z,94868.00
2018-11-25T00:36:43.394Z,94870.00
2018-11-25T00:39:14.666Z,94863.00
2018-11-25T00:41:46.177Z,94863.00
2018-11-25T00:44:17.158Z,94864.00
2018-11-25T00:46:48.060Z,94865.00
2018-11-25T00:49:18.997Z,94867.00
2018-11-25T00:51:49.864Z,94863.00
2018-11-25T00:54:20.813Z,94857.00
2018-11-25T00:56:51.726Z,94856.00
2018-11-25T00:59:22.701Z,94860.00
2018-11-25T01:01:54.017Z,94857.00
2018-11-25T01:04:25.046Z,94859.00
2018-11-25T01:06:55.906Z,94849.00
2018-11-25T01:09:26.980Z,94846.00
2018-11-25T01:11:58.100Z,94848.00
2018-11-25T01:14:29.125Z,94850.00
2018-11-25T01:17:00.004Z,94844.00
2018-11-25T01:19:31.001Z,94841.00
2018-11-25T01:22:02.035Z,94839.00
2018-11-25T01:24:33.151Z,94845.00
2018-11-25T01:27:04.136Z,94843.00
2018-11-25T01:29:35.129Z,94839.00
2018-11-25T01:32:06.242Z,94834.00
2018-11-25T01:34:37.316Z,94839.00
2018-11-25T01:37:08.523Z,94834.00
2018-11-25T01:39:39.618Z,94828.00
2018-11-25T01:42:10.557Z,94824.00
2018-11-25T01:44:42.457Z,94828.00
2018-11-25T01:47:13.965Z,94821.00
2018-11-25T01:49:45.031Z,94820.00
2018-11-25T01:52:15.973Z,94820.00
2018-11-25T01:54:47.073Z,94818.00
2018-11-25T01:57:18.041Z,94811.00
2018-11-25T01:59:49.330Z,94804.00
2018-11-25T02:02:20.252Z,94808.00
2018-11-25T02:04:51.357Z,94807.00
2018-11-25T02:07:22.337Z,94802.00
2018-11-25T02:09:53.390Z,94800.00
2018-11-25T02:12:24.504Z,94797.00
2018-11-25T02:14:55.550Z,94795.00
2018-11-25T02:17:26.625Z,94789.00
2018-11-25T02:19:57.687Z,94783.00
2018-11-25T02:22:29.088Z,94778.00
2018-11-25T02:24:59.751Z,94770.00
2018-11-25T02:27:30.806Z,94767.00
2018-11-25T02:30:01.817Z,94773.00
2018-11-25T02:32:32.822Z,94779.00
2018-11-25T02:35:03.985Z,94781.00
2018-11-25T02:37:35.009Z,94778.00
2018-11-25T02:40:09.315Z,94771.00
2018-11-25T02:42:40.556Z,94767.00
2018-11-25T02:45:14.249Z,94766.00
2018-11-25T02:47:45.268Z,94766.00
2018-11-25T02:50:29.102Z,94762.00
2018-11-25T02:53:02.141Z,94754.00
2018-11-25T02:55:33.201Z,94746.00
2018-11-25T02:58:04.593Z,94745.00
2018-11-25T03:00:35.610Z,94739.00
2018-11-25T03:03:06.635Z,94746.00
2018-11-25T03:05:37.599Z,94744.00
2018-11-25T03:08:08.625Z,94735.00
2018-11-25T03:10:39.675Z,94729.00
2018-11-25T03:13:11.472Z,94731.00
2018-11-25T03:15:43.204Z,94727.00
2018-11-25T03:18:14.087Z,94731.00
2018-11-25T03:20:45.026Z,94732.00
2018-11-25T03:23:15.899Z,94729.00
2018-11-25T03:25:46.876Z,94725.00
2018-11-25T03:28:17.797Z,94720.00
2018-11-25T03:30:48.736Z,94719.00
2018-11-25T03:33:19.683Z,94717.00
2018-11-25T03:35:50.925Z,94715.00
2018-11-25T03:38:21.815Z,94716.00
2018-11-25T03:40:53.016Z,94713.00
2018-11-25T03:43:24.646Z,94710.00
2018-11-25T03:45:55.600Z,94708.00
2018-11-25T03:48:26.534Z,94698.00
2018-11-25T03:50:57.533Z,94700.00
2018-11-25T03:53:28.435Z,94699.00
2018-11-25T03:55:59.806Z,94703.00
2018-11-25T03:58:30.709Z,94710.00
2018-11-25T04:01:01.640Z,94705.00
2018-11-25T04:03:32.548Z,94701.00
2018-11-25T04:06:03.558Z,94708.00
2018-11-25T04:08:34.527Z,94709.00
2018-11-25T04:11:05.472Z,94703.00
2018-11-25T04:13:36.365Z,94706.00
2018-11-25T04:16:07.821Z,94705.00
2018-11-25T04:18:38.763Z,94702.00
2018-11-25T04:21:09.769Z,94706.00
2018-11-25T04:23:40.697Z,94706.00
2018-11-25T04:26:11.685Z,94704.00
2018-11-25T04:28:42.659Z,94706.00
2018-11-25T04:31:13.649Z,94707.00
2018-11-25T04:33:45.636Z,94706.00
2018-11-25T04:36:16.685Z,94702.00
2018-11-25T04:38:47.994Z,94703.00
2018-11-25T04:41:20.386Z,94698.00
2018-11-25T04:43:51.657Z,94700.00
2018-11-25T04:46:22.867Z,94700.00
2018-11-25T04:48:54.302Z,94701.00
2018-11-25T04:51:26.560Z,94696.00
2018-11-25T04:53:57.867Z,94687.00
2018-11-25T04:56:28.885Z,94683.00
2018-11-25T04:58:59.797Z,94680.00
2018-11-25T05:01:30.773Z,94677.00
2018-11-25T05:04:02.419Z,94682.00
2018-11-25T05:06:33.682Z,94690.00
2018-11-25T05:09:05.278Z,94689.00
2018-11-25T05:11:36.408Z,94691.00
2018-11-25T05:14:08.110Z,94694.00
2018-11-25T05:16:41.266Z,94699.00
2018-11-25T05:19:12.192Z,94692.00
2018-11-25T05:21:43.181Z,94695.00
2018-11-25T05:24:14.089Z,94699.00
2018-11-25T05:26:45.731Z,94696.00
2018-11-25T05:29:16.637Z,94702.00
2018-11-25T05:31:47.619Z,94701.00
2018-11-25T05:34:18.551Z,94708.00
2018-11-25T05:36:49.652Z,94703.00
2018-11-25T05:39:20.597Z,94698.00
2018-11-25T05:41:51.576Z,94698.00
2018-11-25T05:44:22.518Z,94697.00
2018-11-25T05:46:53.539Z,94698.00
2018-11-25T05:49:24.532Z,94696.00
2018-11-25T05:51:56.540Z,94697.00
2018-11-25T05:54:27.944Z,94707.00
2018-11-25T05:56:59.413Z,94702.00
2018-11-25T05:59:31.005Z,94697.00
2018-11-25T06:02:03.146Z,94694.00
2018-11-25T06:04:34.078Z,94696.00
2018-11-25T06:07:05.490Z,94692.00
2018-11-25T06:09:36.933Z,94691.00
2018-11-25T06:12:08.684Z,94680.00
2018-11-25T06:14:39.863Z,94677.00
2018-11-25T06:17:11.155Z,94666.00
2018-11-25T06:19:42.354Z,94666.00
2018-11-25T06:22:13.758Z,94665.00
2018-11-25T06:24:44.943Z,94664.00
2018-11-25T06:27:16.217Z,94660.00
2018-11-25T06:29:47.366Z,94655.00
2018-11-25T06:32:18.705Z,94653.00
2018-11-25T06:34:49.918Z,94660.00
2018-11-25T06:37:21.495Z,94656.00
2018-11-25T06:39:52.406Z,94652.00
2018-11-25T06:42:23.388Z,94651.00
2018-11-25T06:44:54.286Z,94647.00
2018-11-25T06:47:25.286Z,94647.00
2018-11-25T06:49:56.240Z,94639.00
2018-11-25T06:52:27.198Z,94637.00
2018-11-25T06:54:58.154Z,94635.00
2018-11-25T06:57:29.409Z,94637.00
2018-11-25T07:00:00.355Z,94636.00
2018-11-25T07:02:31.260Z,94633.00
2018-11-25T07:05:02.195Z,94637.00
2018-11-25T07:07:33.266Z,94635.00
2018-11-25T07:10:04.282Z,94633.00
2018-11-25T07:12:35.234Z,94627.00
2018-11-25T07:15:09.229Z,94627.00
2018-11-25T07:17:40.310Z,94634.00
2018-11-25T07:20:14.297Z,94635.00
2018-11-25T07:22:45.357Z,94635.00
2018-11-25T07:25:18.233Z,94638.00
2018-11-25T07:27:49.206Z,94642.00
2018-11-25T07:30:22.329Z,94637.00
2018-11-25T07:32:53.301Z,94634.00
2018-11-25T07:35:25.738Z,94640.00
2018-11-25T07:37:57.369Z,94643.00
2018-11-25T07:40:28.678Z,94637.00
2018-11-25T07:42:59.633Z,94640.00
2018-11-25T07:45:30.997Z,94632.00
2018-11-25T07:48:02.101Z,94634.00
2018-11-25T07:50:33.033Z,94628.00
2018-11-25T07:53:04.093Z,94639.00
2018-11-25T07:55:36.122Z,94629.00
2018-11-25T07:58:07.542Z,94628.00
2018-11-25T08:00:39.586Z,94630.00
2018-11-25T08:03:10.638Z,94622.00
2018-11-25T08:05:41.641Z,94618.00
2018-11-25T08:08:12.590Z,94610.00
2018-11-25T08:10:43.486Z,94618.00
2018-11-25T08:13:14.489Z,94610.00
2018-11-25T08:15:45.528Z,94607.00
2018-11-25T08:18:16.999Z,94606.00
2018-11-25T08:20:47.911Z,94600.00
2018-11-25T08:23:18.884Z,94599.00
2018-11-25T08:25:49.806Z,94597.00
2018-11-25T08:28:20.781Z,94591.00
2018-11-25T08:30:51.706Z,94581.00
2018-11-25T08:33:24.314Z,94584.00
2018-11-25T08:35:55.337Z,94578.00
2018-11-25T08:38:26.646Z,94578.00
2018-11-25T08:40:57.498Z,94577.00
2018-11-25T08:43:28.466Z,94581.00
2018-11-25T08:45:59.497Z,94568.00
2018-11-25T08:48:31.613Z,94568.00
2018-11-25T08:51:03.780Z,94566.00
2018-11-25T08:53:35.131Z,94566.00
2018-11-25T08:56:06.588Z,94554.00
2018-11-25T08:58:38.881Z,94548.00
2018-11-25T09:01:10.880Z,94547.00
2018-11-25T09:03:41.819Z,94545.00
2018-11-25T09:06:13.341Z,94542.00
2018-11-25T09:08:46.688Z,94537.00
2018-11-25T09:11:18.155Z,94539.00
2018-11-25T09:13:51.445Z,94537.00
2018-11-25T09:16:22.341Z,94528.00
2018-11-25T09:18:55.842Z,94528.00
2018-11-25T09:21:26.789Z,94526.00
2018-11-25T09:23:57.739Z,94520.00
2018-11-25T09:26:28.791Z,94516.00
2018-11-25T09:28:59.882Z,94513.00
2018-11-25T09:31:30.858Z,94510.00
2018-11-25T09:34:01.716Z,94506.00
2018-11-25T09:36:32.789Z,94503.00
2018-11-25T09:39:10.145Z,94500.00
2018-11-25T09:44:39.534Z,94491.00
2018-11-25T09:47:11.457Z,94492.00
2018-11-25T09:49:44.611Z,94483.00
2018-11-25T09:52:23.753Z,94472.00
2018-11-25T09:55:15.640Z,94464.00
2018-11-25T09:57:52.007Z,94463.00
2018-11-25T10:00:26.787Z,94456.00
2018-11-25T10:02:57.809Z,94447.00
2018-11-25T10:05:40.018Z,94447.00
2018-11-25T10:08:12.635Z,94437.00
2018-11-25T10:10:44.152Z,94426.00
2018-11-25T10:13:17.061Z,94431.00
2018-11-25T10:15:51.255Z,94430.00
2018-11-25T10:18:22.278Z,94416.00
2018-11-25T10:20:53.690Z,94409.00
2018-11-25T10:23:24.654Z,94408.00
2018-11-25T10:25:55.568Z,94401.00
2018-11-25T10:28:28.854Z,94398.00
2018-11-25T10:31:03.613Z,94390.00
2018-11-25T10:33:35.077Z,94381.00
2018-11-25T10:36:07.895Z,94386.00
2018-11-25T10:38:39.866Z,94375.00
2018-11-25T10:41:13.320Z,94370.00
2018-11-25T10:43:45.965Z,94362.00
2018-11-25T10:46:18.670Z,94356.00
2018-11-25T10:48:49.626Z,94349.00
2018-11-25T10:51:20.636Z,94342.00
2018-11-25T10:54:04.380Z,94340.00
2018-11-25T10:56:36.978Z,94331.00
2018-11-25T10:59:10.008Z,94319.00
2018-11-25T11:01:56.032Z,94319.00
2018-11-25T11:04:32.284Z,94311.00
2018-11-25T11:07:08.295Z,94307.00
2018-11-25T11:09:40.855Z,94303.00
2018-11-25T11:12:12.514Z,94296.00
2018-11-25T11:14:44.454Z,94290.00
2018-11-25T11:17:15.341Z,94286.00
2018-11-25T11:19:46.678Z,94275.00
2018-11-25T11:22:19.340Z,94268.00
2018-11-25T11:24:50.273Z,94265.00
2018-11-25T11:27:21.165Z,94255.00
2018-11-25T11:29:52.559Z,94248.00
2018-11-25T11:32:23.601Z,94242.00
2018-11-25T11:34:55.458Z,94241.00
2018-11-25T11:37:27.068Z,94232.00
2018-11-25T11:39:58.205Z,94229.00
2018-11-25T11:42:29.203Z,94221.00
2018-11-25T11:45:00.202Z,94214.00
2018-11-25T11:47:31.220Z,94213.00
2018-11-25T11:50:02.432Z,94204.00
2018-11-25T11:52:33.712Z,94199.00
2018-11-25T11:55:04.742Z,94199.00
2018-11-25T11:57:35.636Z,94192.00
2018-11-25T12:00:19.377Z,94193.00
2018-11-25T12:02:50.469Z,94185.00
2018-11-25T12:05:22.234Z,94177.00
2018-11-25T12:07:55.332Z,94176.00
2018-11-25T12:10:26.358Z,94169.00
2018-11-25T12:12:57.380Z,94165.00
2018-11-25T12:15:31.523Z,94159.00
2018-11-25T12:18:02.557Z,94159.00
2018-11-25T12:20:33.937Z,94152.00
2018-11-25T12:23:05.052Z,94147.00
2018-11-25T12:25:36.432Z,94148.00
2018-11-25T12:28:08.006Z,94135.00
2018-11-25T12:30:39.019Z,94139.00
2018-11-25T12:33:09.948Z,94131.00
2018-11-25T12:35:40.915Z,94128.00
2018-11-25T12:38:11.879Z,94126.00
2018-11-25T12:40:43.123Z,94124.00
2018-11-25T12:43:14.136Z,94121.00
2018-11-25T12:45:45.361Z,94121.00
2018-11-25T12:48:16.346Z,94113.00
2018-11-25T12:50:47.452Z,94109.00
2018-11-25T12:53:18.827Z,94106.00
2018-11-25T12:55:50.358Z,94104.00
2018-11-25T12:58:21.577Z,94105.00
2018-11-25T13:00:52.959Z,94097.00
2018-11-25T13:03:24.217Z,94094.00
2018-11-25T13:05:55.594Z,94102.00
2018-11-25T13:08:26.916Z,94093.00
2018-11-25T13:10:58.297Z,94094.00
2018-11-25T13:13:29.532Z,94081.00
2018-11-25T13:16:00.747Z,94074.00
2018-11-25T13:18:32.117Z,94074.00
2018-11-25T13:21:03.380Z,94073.00
2018-11-25T13:23:34.369Z,94071.00
2018-11-25T13:26:05.863Z,94064.00
2018-11-25T13:28:36.766Z,94057.00
2018-11-25T13:31:07.489Z,94057.00
2018-11-25T13:33:38.607Z,94053.00
2018-11-25T13:36:11.274Z,94054.00
2018-11-25T13:38:42.359Z,94054.00
2018-11-25T13:41:13.472Z,94053.00
2018-11-25T13:43:44.521Z,94047.00
2018-11-25T13:46:15.638Z,94046.00
2018-11-25T13:48:46.827Z,94052.00
2018-11-25T13:51:17.902Z,94051.00
2018-11-25T13:53:49.014Z,94055.00
2018-11-25T13:56:20.142Z,94063.00
2018-11-25T13:58:51.155Z,94055.00
2018-11-25T14:01:22.333Z,94058.00
2018-11-25T14:03:53.708Z,94053.00
2018-11-25T14:06:24.842Z,94052.00
2018-11-25T14:08:56.618Z,94047.00
2018-11-25T14:11:27.690Z,94051.00
2018-11-25T14:13:58.723Z,94052.00
2018-11-25T14:16:29.831Z,94051.00
2018-11-25T14:19:00.836Z,94047.00
2018-11-25T14:21:31.846Z,94047.00
2018-11-25T14:24:02.858Z,94041.00
2018-11-25T14:26:39.843Z,94042.00
2018-11-25T14:29:10.863Z,94043.00
2018-11-25T14:31:42.025Z,94043.00
2018-11-25T14:34:13.104Z,94040.00
2018-11-25T14:36:44.204Z,94039.00
2018-11-25T14:39:15.769Z,94042.00
2018-11-25T14:41:46.904Z,94046.00
2018-11-25T14:44:17.907Z,94048.00
2018-11-25T14:46:48.968Z,94047.00
2018-11-25T14:49:19.960Z,94048.00
2018-11-25T14:51:51.055Z,94046.00
2018-11-25T14:54:23.213Z,94050.00
2018-11-25T14:56:54.403Z,94044.00
2018-11-25T14:59:25.443Z,94041.00
2018-11-25T15:01:56.748Z,94043.00
2018-11-25T15:04:27.748Z,94042.00
2018-11-25T15:06:59.119Z,94042.00
2018-11-25T15:09:30.187Z,94042.00
2018-11-25T15:12:01.241Z,94040.00
2018-11-25T15:14:32.564Z,94039.00
2018-11-25T15:17:03.845Z,94041.00
2018-11-25T15:19:34.995Z,94038.00
2018-11-25T15:22:06.256Z,94039.00
2018-11-25T15:24:37.262Z,94040.00
2018-11-25T15:27:09.131Z,94037.00
2018-11-25T15:29:40.199Z,94037.00
2018-11-25T15:32:11.239Z,94033.00
2018-11-25T15:34:42.781Z,94035.00
2018-11-25T15:37:20.963Z,94028.00
2018-11-25T15:39:52.120Z,94027.00
2018-11-25T15:42:23.215Z,94026.00
2018-11-25T15:44:54.135Z,94032.00
2018-11-25T15:47:25.205Z,94025.00
2018-11-25T15:49:56.217Z,94026.00
2018-11-25T15:52:27.289Z,94021.00
2018-11-25T15:54:58.317Z,94024.00
2018-11-25T15:57:29.470Z,94018.00
2018-11-25T16:00:01.444Z,94020.00
2018-11-25T16:02:32.634Z,94020.00
2018-11-25T16:05:03.654Z,94025.00
2018-11-25T16:07:34.770Z,94026.00
2018-11-25T16:10:08.101Z,94025.00
2018-11-25T16:12:39.789Z,94028.00
2018-11-25T16:15:16.378Z,94024.00
2018-11-25T16:17:47.611Z,94031.00
2018-11-25T16:20:21.856Z,94027.00
2018-11-25T16:22:57.835Z,94032.00
2018-11-25T16:25:50.589Z,94031.00
2018-11-25T16:28:33.523Z,94032.00
2018-11-25T16:31:04.880Z,94028.00
2018-11-25T16:33:36.950Z,94028.00
2018-11-25T16:36:08.259Z,94031.00
2018-11-25T16:38:39.374Z,94032.00
2018-11-25T16:41:10.602Z,94030.00
2018-11-25T16:43:42.645Z,94038.00
2018-11-25T16:46:13.702Z,94040.00
2018-11-25T16:48:45.348Z,94041.00
2018-11-25T16:51:16.423Z,94038.00
2018-11-25T16:53:47.778Z,94035.00
2018-11-25T16:56:19.050Z,94041.00
2018-11-25T16:58:52.527Z,94037.00
2018-11-25T17:01:23.711Z,94036.00
2018-11-25T17:03:55.654Z,94040.00
2018-11-25T17:06:26.947Z,94034.00
2018-11-25T17:08:58.143Z,94039.00
2018-11-25T17:11:29.682Z,94039.00
2018-11-25T17:14:09.586Z,94049.00
2018-11-25T17:16:40.699Z,94044.00
2018-11-25T17:19:12.829Z,94047.00
2018-11-25T17:21:43.890Z,94053.00
2018-11-25T17:24:15.710Z,94047.00
2018-11-25T17:26:47.966Z,94048.00
2018-11-25T17:29:19.732Z,94042.00
2018-11-25T17:31:53.182Z,94039.00
2018-11-25T17:34:24.468Z,94037.00
2018-11-25T17:36:55.433Z,94036.00
2018-11-25T17:39:26.502Z,94040.00
2018-11-25T17:41:58.427Z,94035.00
2018-11-25T17:44:29.687Z,94037.00
2018-11-25T17:47:02.286Z,94039.00
2018-11-25T17:49:33.547Z,94034.00
2018-11-25T17:52:04.585Z,94040.00
2018-11-25T17:54:36.019Z,94042.00
2018-11-25T17:57:07.126Z,94035.00
2018-11-25T17:59:38.244Z,94043.00
2018-11-25T18:02:09.736Z,94040.00
2018-11-25T18:04:42.117Z,94032.00
2018-11-25T18:07:13.303Z,94037.00
2018-11-25T18:09:44.670Z,94040.00
2018-11-25T18:12:15.639Z,94042.00
2018-11-25T18:14:46.721Z,94048.00
2018-11-25T18:17:19.238Z,94051.00
2018-11-25T18:19:51.837Z,94048.00
2018-11-25T18:22:27.984Z,94047.00
2018-11-25T18:24:59.147Z,94046.00
2018-11-25T18:27:31.183Z,94042.00
2018-11-25T18:30:02.495Z,94045.00
2018-11-25T18:32:33.911Z,94045.00
2018-11-25T18:35:06.321Z,94051.00
2018-11-25T18:37:37.862Z,94042.00
2018-11-25T18:40:13.575Z,94042.00
2018-11-25T18:42:45.756Z,94037.00
2018-11-25T18:45:19.742Z,94035.00
2018-11-25T18:47:52.303Z,94037.00
2018-11-25T18:50:24.288Z,94031.00
2018-11-25T18:53:07.383Z,94031.00
2018-11-25T18:55:39.114Z,94042.00
2018-11-25T18:58:10.293Z,94043.00
2018-11-25T19:00:51.009Z,94046.00
2018-11-25T19:03:22.449Z,94032.00
2018-11-25T19:05:54.683Z,94034.00
2018-11-25T19:08:26.344Z,94029.00
2018-11-25T19:10:59.336Z,94027.00
2018-11-25T19:13:30.950Z,94031.00
2018-11-25T19:16:02.562Z,94029.00
2018-11-25T19:18:34.075Z,94030.00
2018-11-25T19:21:05.777Z,94030.00
2018-11-25T19:23:37.452Z,94025.00
2018-11-25T19:26:09.676Z,94029.00
2018-11-25T19:28:41.133Z,94024.00
2018-11-25T19:31:12.616Z,94019.00
2018-11-25T19:33:45.307Z,94016.00
2018-11-25T19:36:17.592Z,94013.00
2018-11-25T19:38:49.192Z,94005.00
2018-11-25T19:41:20.800Z,94005.00
2018-11-25T19:43:52.275Z,94004.00
2018-11-25T19:46:23.867Z,94009.00
2018-11-25T19:48:55.545Z,94008.00
2018-11-25T19:51:27.552Z,94011.00
2018-11-25T19:53:59.255Z,94003.00
2018-11-25T19:56:30.883Z,94000.00
2018-11-25T19:59:03.755Z,93995.00
2018-11-25T20:01:35.848Z,93995.00
2018-11-25T20:04:08.400Z,93999.00
2018-11-25T20:06:39.739Z,93996.00
2018-11-25T20:09:12.247Z,93993.00
2018-11-25T20:11:43.826Z,93989.00
2018-11-25T20:14:15.358Z,93989.00
2018-11-25T20:16:52.153Z,93988.00
2018-11-25T20:19:23.670Z,93990.00
2018-11-25T20:22:00.255Z,93987.00
2018-11-25T20:24:31.799Z,93985.00
2018-11-25T20:27:09.000Z,93989.00
2018-11-25T20:29:40.847Z,93985.00
2018-11-25T20:32:17.371Z,93982.00
2018-11-25T20:34:49.095Z,93982.00
2018-11-25T20:37:26.727Z,93982.00
2018-11-25T20:39:52.521Z,93988.00
2018-11-25T20:42:24.064Z,93988.00
2018-11-25T20:44:55.574Z,93994.00
2018-11-25T20:47:27.151Z,93996.00
2018-11-25T20:49:58.647Z,93993.00
2018-11-25T20:53:34.124Z,93993.00
2018-11-25T20:56:05.509Z,93984.00
2018-11-25T20:58:36.471Z,93983.00
2018-11-25T21:01:07.425Z,93984.00
2018-11-25T21:03:38.427Z,93984.00
2018-11-25T21:06:09.511Z,93982.00
2018-11-25T21:08:40.519Z,93982.00
2018-11-25T21:11:11.446Z,93976.00
2018-11-25T21:13:42.527Z,93974.00
2018-11-25T21:16:13.471Z,93974.00
2018-11-25T21:18:44.484Z,93969.00
2018-11-25T21:21:15.471Z,93973.00
2018-11-25T21:23:46.580Z,93973.00
2018-11-25T21:26:17.591Z,93971.00
2018-11-25T21:28:48.904Z,93969.00
2018-11-25T21:31:19.895Z,93969.00
2018-11-25T21:33:50.990Z,93971.00
2018-11-25T21:36:21.991Z,93968.00
2018-11-25T21:38:53.062Z,93968.00
2018-11-25T21:41:24.030Z,93970.00
2018-11-25T21:43:55.591Z,93968.00
2018-11-25T21:46:26.644Z,93970.00
2018-11-25T21:48:57.630Z,93975.00
2018-11-25T21:51:28.709Z,93973.00
2018-11-25T21:54:00.251Z,93973.00
2018-11-25T21:56:31.162Z,93973.00
2018-11-25T21:59:02.203Z,93979.00
2018-11-25T22:01:33.180Z,93979.00
2018-11-25T22:04:04.253Z,93979.00
2018-11-25T22:06:35.141Z,93974.00
2018-11-25T22:09:09.609Z,93976.00
2018-11-25T22:11:40.532Z,93974.00
2018-11-25T22:14:11.971Z,93972.00
2018-11-25T22:16:42.947Z,93968.00
2018-11-25T22:19:13.992Z,93971.00
2018-11-25T22:21:44.952Z,93967.00
2018-11-25T22:24:15.911Z,93969.00
2018-11-25T22:26:46.931Z,93971.00
2018-11-25T22:29:17.946Z,93974.00
2018-11-25T22:31:48.976Z,93971.00
2018-11-25T22:34:19.967Z,93973.00
2018-11-25T22:36:50.970Z,93974.00
2018-11-25T22:39:22.052Z,93975.00
2018-11-25T22:41:52.979Z,93977.00
2018-11-25T22:44:24.030Z,93980.00
2018-11-25T22:46:55.079Z,93985.00
2018-11-25T22:49:26.210Z,93988.00
2018-11-25T22:51:58.130Z,93992.00
2018-11-25T22:54:29.159Z,93992.00
2018-11-25T22:57:00.122Z,94002.00
2018-11-25T22:59:31.090Z,94000.00
2018-11-25T23:02:01.982Z,94000.00
2018-11-25T23:04:49.510Z,94001.00
2018-11-25T23:07:20.549Z,93999.00
2018-11-25T23:09:51.492Z,93998.00
2018-11-25T23:12:22.431Z,93995.00
2018-11-25T23:14:53.530Z,93990.00
2018-11-25T23:17:24.449Z,93990.00
2018-11-25T23:19:55.381Z,93990.00
2018-11-25T23:22:26.341Z,93991.00
2018-11-25T23:24:57.267Z,93984.00
2018-11-25T23:27:28.185Z,93984.00
2018-11-25T23:29:59.233Z,93983.00
2018-11-25T23:32:30.213Z,93982.00
2018-11-25T23:35:01.769Z,93980.00
2018-11-25T23:37:32.783Z,93982.00
2018-11-25T23:40:03.843Z,93978.00
2018-11-25T23:42:35.142Z,93976.00
2018-11-25T23:45:11.651Z,93970.00
2018-11-25T23:47:43.557Z,93974.00
2018-11-25T23:50:15.775Z,93972.00
2018-11-25T23:52:48.567Z,93982.00
2018-11-25T23:55:19.569Z,93981.00
2018-11-25T23:57:50.518Z,93976.00
